createdAt,value
2022-11-16T00:01:35.385Z,0.80
2022-11-16T00:04:11.435Z,0.98
2022-11-16T00:06:47.643Z,0.93
2022-11-16T00:09:28.699Z,1.00
2022-11-16T00:12:03.525Z,0.88
2022-11-16T00:14:38.537Z,0.77
2022-11-16T00:17:14.600Z,0.80
2022-11-16T00:19:51.890Z,0.90
2022-11-16T00:22:27.128Z,0.60
2022-11-16T00:25:04.366Z,0.73
2022-11-16T00:27:40.394Z,0.70
2022-11-16T00:30:17.153Z,0.80
2022-11-16T00:32:53.402Z,1.05
2022-11-16T00:35:28.678Z,1.05
2022-11-16T00:38:04.381Z,1.00
2022-11-16T00:40:44.861Z,0.63
2022-11-16T00:43:20.396Z,0.90
2022-11-16T00:45:55.679Z,0.70
2022-11-16T00:48:30.719Z,0.80
2022-11-16T00:51:06.069Z,0.80
2022-11-16T00:53:42.302Z,0.90
2022-11-16T00:56:19.672Z,0.90
2022-11-16T00:58:54.962Z,0.90
2022-11-16T01:01:30.429Z,1.02
2022-11-16T01:04:06.207Z,0.60
2022-11-16T01:06:41.551Z,0.80
2022-11-16T01:09:17.575Z,1.23
2022-11-16T01:12:16.033Z,1.20
2022-11-16T01:14:51.517Z,1.20
2022-11-16T01:17:27.190Z,1.45
2022-11-16T01:20:03.210Z,1.30
2022-11-16T01:22:41.669Z,1.70
2022-11-16T01:25:18.207Z,1.50
2022-11-16T01:27:55.453Z,1.25
2022-11-16T01:30:45.167Z,1.30
2022-11-16T01:33:20.940Z,1.08
2022-11-16T01:35:57.560Z,1.25
2022-11-16T01:38:33.631Z,1.10
2022-11-16T01:41:10.460Z,1.00
2022-11-16T01:44:00.347Z,1.38
2022-11-16T01:46:42.006Z,1.50
2022-11-16T01:49:25.492Z,1.10
2022-11-16T01:52:07.493Z,1.27
2022-11-16T01:54:50.047Z,1.35
2022-11-16T01:57:30.721Z,1.13
2022-11-16T02:00:18.809Z,1.10
2022-11-16T02:03:14.687Z,1.40
2022-11-16T02:06:10.037Z,1.13
2022-11-16T02:09:16.324Z,1.20
2022-11-16T02:12:12.452Z,1.20
2022-11-16T02:15:07.467Z,1.20
2022-11-16T02:17:53.115Z,1.20
2022-11-16T02:20:58.571Z,1.25
2022-11-16T02:24:18.392Z,1.40
2022-11-16T02:27:16.448Z,1.40
2022-11-16T02:29:56.593Z,1.27
2022-11-16T02:32:36.587Z,1.23
2022-11-16T02:35:18.321Z,1.42
2022-11-16T02:37:58.770Z,1.25
2022-11-16T02:40:37.851Z,1.15
2022-11-16T02:43:16.489Z,1.10
2022-11-16T02:45:59.041Z,1.20
2022-11-16T02:48:39.530Z,1.02
2022-11-16T02:51:15.939Z,1.30
2022-11-16T02:54:04.072Z,0.98
2022-11-16T02:56:51.920Z,1.17
2022-11-16T02:59:35.890Z,1.20
2022-11-16T03:02:24.460Z,1.30
2022-11-16T03:05:06.512Z,1.20
2022-11-16T03:07:54.360Z,1.02
2022-11-16T03:10:43.818Z,1.02
2022-11-16T03:13:21.132Z,1.13
2022-11-16T03:15:58.627Z,1.33
2022-11-16T03:18:36.647Z,1.40
2022-11-16T03:21:20.672Z,1.80
2022-11-16T03:23:57.312Z,1.55
2022-11-16T03:26:38.479Z,1.10
2022-11-16T03:29:19.084Z,1.30
2022-11-16T03:32:01.505Z,1.20
2022-11-16T03:34:42.183Z,1.30
2022-11-16T03:37:20.163Z,1.13
2022-11-16T03:39:57.584Z,1.27
2022-11-16T03:42:34.299Z,0.90
2022-11-16T03:45:10.985Z,0.90
2022-11-16T03:47:46.999Z,1.10
2022-11-16T03:50:25.811Z,0.70
2022-11-16T03:53:01.943Z,0.70
2022-11-16T03:55:37.697Z,0.50
2022-11-16T03:58:14.645Z,0.65
2022-11-16T04:00:50.156Z,0.50
2022-11-16T04:03:26.496Z,0.60
2022-11-16T04:06:25.457Z,0.60
2022-11-16T04:09:17.434Z,0.60
2022-11-16T04:12:08.412Z,0.60
2022-11-16T04:15:01.404Z,0.52
2022-11-16T04:17:54.825Z,0.60
2022-11-16T04:20:46.006Z,0.60
2022-11-16T04:23:39.020Z,0.43
2022-11-16T04:26:14.741Z,0.50
2022-11-16T04:28:48.493Z,0.30
2022-11-16T04:31:39.758Z,0.70
2022-11-16T04:34:34.345Z,0.50
2022-11-16T04:37:26.794Z,0.50
2022-11-16T04:40:04.153Z,0.52
2022-11-16T04:42:39.534Z,0.60
2022-11-16T04:45:31.859Z,0.50
2022-11-16T04:48:07.486Z,0.50
2022-11-16T04:50:45.101Z,0.70
2022-11-16T04:53:22.041Z,1.00
2022-11-16T04:56:08.857Z,1.30
2022-11-16T04:58:45.458Z,1.65
2022-11-16T05:01:41.448Z,1.50
2022-11-16T05:04:17.062Z,1.50
2022-11-16T05:06:53.805Z,1.40
2022-11-16T05:09:31.015Z,1.20
2022-11-16T05:12:09.105Z,1.00
2022-11-16T05:14:48.611Z,1.30
2022-11-16T05:17:26.097Z,1.20
2022-11-16T05:20:19.637Z,0.90
2022-11-16T05:23:06.960Z,0.98
2022-11-16T05:25:46.028Z,1.00
2022-11-16T05:28:26.868Z,0.90
2022-11-16T05:31:05.138Z,1.05
2022-11-16T05:33:46.157Z,1.02
2022-11-16T05:36:22.891Z,0.90
2022-11-16T05:38:59.053Z,1.00
2022-11-16T05:41:40.509Z,1.00
2022-11-16T05:44:20.195Z,0.55
2022-11-16T05:46:58.087Z,0.80
2022-11-16T05:49:33.835Z,0.52
2022-11-16T05:52:11.041Z,0.70
2022-11-16T05:54:47.197Z,0.90
2022-11-16T05:57:23.361Z,0.82
2022-11-16T06:00:02.501Z,0.77
2022-11-16T06:02:39.815Z,0.60
2022-11-16T06:05:17.056Z,0.70
2022-11-16T06:07:54.761Z,0.75
2022-11-16T06:10:32.096Z,0.70
2022-11-16T06:13:07.525Z,0.63
2022-11-16T06:15:52.391Z,0.88
2022-11-16T06:18:28.604Z,0.70
2022-11-16T06:21:04.685Z,0.80
2022-11-16T06:23:40.282Z,0.82
2022-11-16T06:26:16.986Z,0.60
2022-11-16T06:28:56.661Z,0.70
2022-11-16T06:31:33.801Z,0.80
2022-11-16T06:34:11.163Z,0.90
2022-11-16T06:36:47.246Z,0.70
2022-11-16T06:39:23.271Z,0.70
2022-11-16T06:41:59.814Z,0.60
2022-11-16T06:44:38.515Z,0.70
2022-11-16T06:47:20.293Z,0.70
2022-11-16T06:49:56.545Z,0.70
2022-11-16T06:52:33.429Z,0.90
2022-11-16T06:55:09.634Z,0.70
2022-11-16T06:57:45.753Z,0.77
2022-11-16T07:00:23.493Z,0.70
2022-11-16T07:03:01.545Z,0.70
2022-11-16T07:05:37.867Z,0.60
2022-11-16T07:08:16.048Z,0.75
2022-11-16T07:10:52.953Z,0.70
2022-11-16T07:13:29.087Z,0.98
2022-11-16T07:16:12.540Z,0.55
2022-11-16T07:18:58.189Z,0.80
2022-11-16T07:21:41.250Z,1.00
2022-11-16T07:24:22.485Z,0.80
2022-11-16T07:27:01.218Z,0.60
2022-11-16T07:29:42.224Z,0.70
2022-11-16T07:32:41.617Z,0.98
2022-11-16T07:35:24.853Z,1.02
2022-11-16T07:38:01.153Z,0.60
2022-11-16T07:40:40.848Z,0.60
2022-11-16T07:43:16.978Z,0.80
2022-11-16T07:46:46.620Z,0.70
2022-11-16T07:49:20.438Z,0.82
2022-11-16T07:52:08.174Z,0.85
2022-11-16T07:54:58.688Z,0.75
2022-11-16T07:57:36.344Z,1.10
2022-11-16T08:00:19.604Z,0.80
2022-11-16T08:03:05.174Z,0.63
2022-11-16T08:05:41.297Z,0.80
2022-11-16T08:08:19.347Z,1.08
2022-11-16T08:10:55.438Z,1.30
2022-11-16T08:13:33.695Z,1.05
2022-11-16T08:16:13.324Z,1.60
2022-11-16T08:18:50.292Z,2.55
2022-11-16T08:21:25.970Z,5.22
2022-11-16T08:24:04.114Z,6.20
2022-11-16T08:26:44.484Z,2.97
2022-11-16T08:29:22.608Z,1.00
2022-11-16T08:32:00.322Z,1.00
2022-11-16T08:34:36.299Z,0.98
2022-11-16T08:37:14.148Z,0.98
2022-11-16T08:39:55.287Z,1.13
2022-11-16T08:42:32.665Z,0.77
2022-11-16T08:45:08.423Z,0.80
2022-11-16T08:47:44.367Z,0.73
2022-11-16T08:50:21.285Z,0.90
2022-11-16T08:53:03.610Z,0.90
2022-11-16T08:55:42.660Z,0.82
2022-11-16T08:58:22.611Z,0.68
2022-11-16T09:01:02.190Z,0.70
2022-11-16T09:03:38.946Z,1.45
2022-11-16T09:06:16.345Z,1.40
2022-11-16T09:08:52.234Z,1.80
2022-11-16T09:11:30.816Z,1.20
2022-11-16T09:14:07.496Z,1.30
2022-11-16T09:16:43.268Z,1.13
2022-11-16T09:19:18.619Z,1.10
2022-11-16T09:21:53.993Z,1.20
2022-11-16T09:24:29.914Z,0.88
2022-11-16T09:27:08.465Z,1.23
2022-11-16T09:29:43.656Z,1.75
2022-11-16T09:32:19.403Z,1.40
2022-11-16T09:34:55.562Z,1.40
2022-11-16T09:37:31.577Z,1.77
2022-11-16T09:40:07.948Z,1.00
2022-11-16T09:42:58.309Z,0.80
2022-11-16T09:45:42.005Z,0.73
2022-11-16T09:48:20.833Z,0.98
2022-11-16T09:50:58.622Z,0.88
2022-11-16T09:53:38.541Z,1.42
2022-11-16T09:56:22.094Z,1.02
2022-11-16T09:59:06.107Z,0.80
2022-11-16T10:01:46.438Z,1.00
2022-11-16T10:04:29.382Z,0.80
2022-11-16T10:07:08.086Z,0.80
2022-11-16T10:09:44.550Z,0.90
2022-11-16T10:12:27.274Z,0.68
2022-11-16T10:15:31.525Z,0.73
2022-11-16T10:18:21.667Z,0.70
2022-11-16T10:21:06.626Z,1.02
2022-11-16T10:23:58.393Z,1.02
2022-11-16T10:26:42.279Z,1.33
2022-11-16T10:29:35.972Z,1.30
2022-11-16T10:32:23.681Z,1.17
2022-11-16T10:35:00.875Z,1.00
2022-11-16T10:37:40.319Z,1.00
2022-11-16T10:40:25.028Z,0.80
2022-11-16T10:43:08.818Z,0.80
2022-11-16T10:45:48.955Z,0.80
2022-11-16T10:48:39.025Z,0.90
2022-11-16T10:51:15.601Z,1.05
2022-11-16T10:53:52.379Z,1.63
2022-11-16T10:56:33.539Z,1.20
2022-11-16T10:59:14.054Z,0.93
2022-11-16T11:01:54.891Z,0.90
2022-11-16T11:04:37.824Z,0.90
2022-11-16T11:07:34.760Z,1.00
2022-11-16T11:10:14.957Z,1.10
2022-11-16T11:13:28.073Z,0.90
2022-11-16T11:16:22.189Z,0.90
2022-11-16T11:18:58.822Z,0.95
2022-11-16T11:21:36.997Z,1.00
2022-11-16T11:27:21.274Z,1.10
2022-11-16T11:30:05.885Z,1.00
2022-11-16T11:32:46.542Z,1.10
2022-11-16T11:35:32.602Z,1.30
2022-11-16T11:41:29.836Z,1.00
2022-11-16T11:44:10.497Z,1.20
2022-11-16T11:47:42.331Z,1.10
2022-11-16T11:50:05.357Z,1.40
2022-11-16T11:52:47.201Z,1.27
2022-11-16T11:55:29.267Z,1.25
2022-11-16T11:58:09.113Z,1.00
2022-11-16T12:00:53.229Z,1.20
2022-11-16T12:03:47.860Z,1.10
2022-11-16T12:06:33.385Z,0.90
2022-11-16T12:09:22.003Z,1.20
2022-11-16T12:12:14.887Z,1.13
2022-11-16T12:15:26.727Z,1.00
2022-11-16T12:18:14.287Z,1.08
2022-11-16T12:21:06.405Z,1.00
2022-11-16T12:24:06.122Z,1.05
2022-11-16T12:26:52.957Z,0.90
2022-11-16T12:29:46.262Z,1.10
2022-11-16T12:32:39.743Z,1.20
2022-11-16T12:35:45.533Z,1.20
2022-11-16T12:38:38.216Z,1.08
2022-11-16T12:41:55.432Z,1.13
2022-11-16T12:44:50.838Z,1.00
2022-11-16T12:47:35.771Z,0.98
2022-11-16T12:50:25.388Z,0.93
2022-11-16T12:53:29.810Z,0.93
2022-11-16T12:56:15.180Z,0.88
2022-11-16T12:59:19.765Z,1.00
2022-11-16T13:02:07.864Z,0.77
2022-11-16T13:04:47.500Z,0.90
2022-11-16T13:07:26.708Z,1.00
2022-11-16T13:10:08.812Z,1.00
2022-11-16T13:12:46.956Z,1.10
2022-11-16T13:15:27.678Z,1.08
2022-11-16T13:18:20.681Z,1.10
2022-11-16T13:21:03.593Z,0.90
2022-11-16T13:23:49.959Z,0.93
2022-11-16T13:26:33.787Z,0.80
2022-11-16T13:29:23.790Z,0.90
2022-11-16T13:32:05.391Z,1.00
2022-11-16T13:34:45.239Z,0.80
2022-11-16T13:37:52.517Z,1.00
2022-11-16T13:40:37.044Z,1.10
2022-11-16T13:43:22.745Z,1.05
2022-11-16T13:46:07.174Z,1.10
2022-11-16T13:48:49.615Z,1.10
2022-11-16T13:51:37.501Z,0.90
2022-11-16T13:54:44.528Z,0.98
2022-11-16T13:57:28.433Z,0.80
2022-11-16T14:00:25.106Z,0.80
2022-11-16T14:03:32.760Z,0.95
2022-11-16T14:06:08.946Z,0.73
2022-11-16T14:09:02.198Z,0.77
2022-11-16T14:11:40.778Z,0.85
2022-11-16T14:14:17.987Z,0.70
2022-11-16T14:16:58.368Z,0.70
2022-11-16T14:20:04.116Z,0.88
2022-11-16T14:23:09.232Z,0.65
2022-11-16T14:25:52.645Z,0.90
2022-11-16T14:28:53.271Z,0.75
2022-11-16T14:31:32.872Z,0.70
2022-11-16T14:34:10.065Z,0.80
2022-11-16T14:36:51.131Z,0.60
2022-11-16T14:39:42.529Z,0.50
2022-11-16T14:42:26.947Z,0.60
2022-11-16T14:45:10.442Z,0.57
2022-11-16T14:47:52.394Z,0.63
2022-11-16T14:50:29.694Z,0.57
2022-11-16T14:53:08.075Z,0.63
2022-11-16T14:55:50.563Z,0.60
2022-11-16T14:58:28.525Z,0.70
2022-11-16T15:01:07.169Z,0.68
2022-11-16T15:04:04.038Z,0.70
2022-11-16T15:06:45.487Z,0.80
2022-11-16T15:09:27.444Z,0.60
2022-11-16T15:12:21.147Z,0.50
2022-11-16T15:15:00.182Z,0.60
2022-11-16T15:17:36.126Z,0.60
2022-11-16T15:20:22.547Z,0.70
2022-11-16T15:23:00.541Z,0.75
2022-11-16T15:25:39.629Z,0.70
2022-11-16T15:28:21.078Z,0.57
2022-11-16T15:30:59.812Z,0.60
2022-11-16T15:33:37.607Z,0.43
2022-11-16T15:36:28.248Z,0.50
2022-11-16T15:39:05.860Z,0.55
2022-11-16T15:41:43.629Z,0.57
2022-11-16T15:44:22.621Z,0.47
2022-11-16T15:47:02.006Z,0.50
2022-11-16T15:49:41.961Z,0.50
2022-11-16T15:52:17.405Z,0.60
2022-11-16T15:55:09.207Z,0.68
2022-11-16T15:57:46.739Z,0.50
2022-11-16T16:00:28.585Z,0.60
2022-11-16T16:03:10.210Z,0.60
2022-11-16T16:05:47.135Z,0.70
2022-11-16T16:08:35.081Z,0.80
2022-11-16T16:11:14.906Z,0.70
2022-11-16T16:14:04.139Z,0.90
2022-11-16T16:16:41.075Z,0.57
2022-11-16T16:19:39.978Z,0.70
2022-11-16T16:22:29.369Z,0.82
2022-11-16T16:25:05.873Z,0.88
2022-11-16T16:27:44.732Z,0.80
2022-11-16T16:30:21.117Z,1.10
2022-11-16T16:32:57.333Z,0.98
2022-11-16T16:35:35.269Z,1.20
2022-11-16T16:38:18.601Z,1.05
2022-11-16T16:40:54.861Z,1.15
2022-11-16T16:43:33.712Z,1.30
2022-11-16T16:46:11.094Z,1.33
2022-11-16T16:48:49.554Z,1.38
2022-11-16T16:51:29.755Z,1.48
2022-11-16T16:54:13.444Z,1.35
2022-11-16T16:56:53.655Z,1.55
2022-11-16T16:59:32.393Z,1.58
2022-11-16T17:02:09.813Z,1.30
2022-11-16T17:04:48.784Z,1.23
2022-11-16T17:07:31.433Z,1.40
2022-11-16T17:10:08.859Z,1.35
2022-11-16T17:12:45.314Z,1.30
2022-11-16T17:15:22.146Z,1.33
2022-11-16T17:18:01.167Z,1.40
2022-11-16T17:20:42.698Z,1.60
2022-11-16T17:23:25.089Z,1.45
2022-11-16T17:26:04.594Z,1.92
2022-11-16T17:28:42.777Z,1.55
2022-11-16T17:31:21.195Z,1.58
2022-11-16T17:33:59.156Z,1.38
2022-11-16T17:36:35.736Z,1.15
2022-11-16T17:39:15.755Z,1.40
2022-11-16T17:41:53.349Z,1.30
2022-11-16T17:44:32.153Z,1.33
2022-11-16T17:47:09.824Z,1.42
2022-11-16T17:49:47.955Z,1.38
2022-11-16T17:52:25.555Z,1.10
2022-11-16T17:55:04.285Z,1.25
2022-11-16T17:57:40.793Z,1.15
2022-11-16T18:00:19.753Z,1.13
2022-11-16T18:02:56.167Z,1.00
2022-11-16T18:05:31.512Z,1.20
2022-11-16T18:08:07.287Z,1.30
2022-11-16T18:10:45.913Z,1.33
2022-11-16T18:13:21.858Z,1.10
2022-11-16T18:15:59.255Z,1.45
2022-11-16T18:18:35.930Z,1.10
2022-11-16T18:21:18.772Z,1.08
2022-11-16T18:23:57.164Z,1.40
2022-11-16T18:26:35.040Z,1.33
2022-11-16T18:29:13.866Z,1.30
2022-11-16T18:31:49.924Z,1.58
2022-11-16T18:34:26.190Z,1.10
2022-11-16T18:37:02.825Z,1.30
2022-11-16T18:39:38.881Z,1.48
2022-11-16T18:42:17.341Z,1.38
2022-11-16T18:44:53.855Z,1.30
2022-11-16T18:47:29.935Z,1.48
2022-11-16T18:50:05.406Z,1.45
2022-11-16T18:52:41.256Z,1.05
2022-11-16T18:55:17.604Z,1.63
2022-11-16T18:57:55.385Z,1.52
2022-11-16T19:00:31.030Z,1.20
2022-11-16T19:03:11.023Z,1.60
2022-11-16T19:05:47.583Z,1.40
2022-11-16T19:08:23.681Z,1.13
2022-11-16T19:11:00.557Z,1.50
2022-11-16T19:13:38.836Z,1.52
2022-11-16T19:16:17.227Z,1.70
2022-11-16T19:18:53.450Z,1.65
2022-11-16T19:21:29.337Z,1.42
2022-11-16T19:24:04.776Z,1.60
2022-11-16T19:26:40.897Z,1.27
2022-11-16T19:29:18.642Z,1.50
2022-11-16T19:31:54.503Z,1.65
2022-11-16T19:34:33.272Z,1.50
2022-11-16T19:37:09.641Z,1.50
2022-11-16T19:39:45.784Z,1.48
2022-11-16T19:42:21.858Z,1.42
2022-11-16T19:44:59.468Z,1.55
2022-11-16T19:47:36.707Z,1.42
2022-11-16T19:50:14.509Z,1.42
2022-11-16T19:52:50.016Z,1.23
2022-11-16T19:55:25.293Z,1.70
2022-11-16T19:58:00.999Z,1.50
2022-11-16T20:00:38.393Z,1.45
2022-11-16T20:03:13.835Z,1.30
2022-11-16T20:05:50.039Z,1.42
2022-11-16T20:08:25.889Z,1.50
2022-11-16T20:11:03.092Z,1.55
2022-11-16T20:13:40.091Z,1.67
2022-11-16T20:16:19.298Z,1.30
2022-11-16T20:18:56.160Z,1.60
2022-11-16T20:21:34.795Z,1.67
2022-11-16T20:24:12.093Z,1.70
2022-11-16T20:26:48.018Z,1.58
2022-11-16T20:29:24.480Z,1.38
2022-11-16T20:32:02.384Z,1.40
2022-11-16T20:34:39.737Z,1.30
2022-11-16T20:37:15.165Z,1.30
2022-11-16T20:39:54.205Z,1.65
2022-11-16T20:42:30.469Z,1.40
2022-11-16T20:45:06.516Z,1.38
2022-11-16T20:47:43.697Z,1.35
2022-11-16T20:50:22.986Z,1.38
2022-11-16T20:52:58.237Z,1.60
2022-11-16T20:55:34.415Z,1.67
2022-11-16T20:58:09.744Z,1.38
2022-11-16T21:00:45.757Z,1.50
2022-11-16T21:03:24.157Z,1.35
2022-11-16T21:05:59.670Z,1.40
2022-11-16T21:08:35.959Z,1.50
2022-11-16T21:11:17.537Z,1.20
2022-11-16T21:14:09.461Z,1.50
2022-11-16T21:16:46.220Z,1.55
2022-11-16T21:19:24.378Z,1.40
2022-11-16T21:22:00.630Z,1.30
2022-11-16T21:24:36.713Z,1.33
2022-11-16T21:27:15.335Z,1.13
2022-11-16T21:29:51.300Z,1.55
2022-11-16T21:32:29.719Z,1.23
2022-11-16T21:35:08.070Z,1.15
2022-11-16T21:37:44.540Z,1.38
2022-11-16T21:40:21.220Z,1.30
2022-11-16T21:42:58.383Z,1.30
2022-11-16T21:45:35.185Z,1.25
2022-11-16T21:48:11.142Z,1.27
2022-11-16T21:50:48.409Z,1.52
2022-11-16T21:53:24.841Z,1.08
2022-11-16T21:56:01.277Z,1.17
2022-11-16T21:58:38.528Z,1.10
2022-11-16T22:01:15.460Z,1.10
2022-11-16T22:04:14.831Z,1.30
2022-11-16T22:07:12.358Z,1.35
2022-11-16T22:09:48.004Z,1.00
2022-11-16T22:12:23.390Z,1.00
2022-11-16T22:14:59.428Z,0.80
2022-11-16T22:17:36.856Z,1.20
2022-11-16T22:20:15.741Z,1.00
2022-11-16T22:22:53.624Z,1.05
2022-11-16T22:25:29.332Z,1.27
2022-11-16T22:28:20.353Z,1.05
2022-11-16T22:31:05.186Z,0.90
2022-11-16T22:33:41.035Z,0.90
2022-11-16T22:36:17.746Z,1.10
2022-11-16T22:38:55.655Z,1.30
2022-11-16T22:41:31.402Z,1.00
2022-11-16T22:44:07.697Z,1.13
2022-11-16T22:46:44.250Z,0.95
2022-11-16T22:49:20.730Z,0.95
2022-11-16T22:51:56.554Z,0.90
2022-11-16T22:54:35.920Z,0.98
2022-11-16T22:57:11.447Z,1.00
2022-11-16T22:59:48.892Z,1.10
2022-11-16T23:02:26.708Z,1.23
2022-11-16T23:05:06.839Z,1.10
2022-11-16T23:07:45.663Z,1.08
2022-11-16T23:10:25.149Z,0.90
2022-11-16T23:13:16.587Z,1.20
2022-11-16T23:15:59.079Z,1.05
2022-11-16T23:18:37.296Z,0.90
2022-11-16T23:21:29.494Z,1.00
2022-11-16T23:24:21.666Z,1.00
2022-11-16T23:27:14.599Z,0.90
2022-11-16T23:29:52.138Z,1.08
2022-11-16T23:32:27.418Z,0.80
2022-11-16T23:35:02.369Z,1.02
2022-11-16T23:37:38.133Z,0.90
2022-11-16T23:40:13.125Z,1.10
2022-11-16T23:43:05.919Z,1.25
2022-11-16T23:45:41.317Z,1.00
2022-11-16T23:48:17.422Z,1.10
2022-11-16T23:50:52.657Z,1.00
2022-11-16T23:53:28.497Z,1.00
2022-11-16T23:56:07.765Z,1.10
2022-11-16T23:58:46.379Z,1.10
